Time;durP1;ratioP1;P1;durP2;ratioP2;P2;SDS_P1;SDS_P2;PMS_P1;PMS_P2;Temp;Humidity;BMP_temperature;BMP_pressure;BME280_temperature;BME280_humidity;BME280_pressure;Samples;Min_cycle;Max_cycle;Signal;HPM_P1;HPM_P2
2021/09/14 00:00:29;;;;;;;;;;;;;;;17.34;74.01;96846.78;30001;983;1875;-65
2021/09/14 00:01:01;;;;;;;;;;;;;;;17.33;74.25;96842.44;30001;983;1880;-66
2021/09/14 00:01:32;;;;;;;;;;;;;;;17.33;74.09;96849.88;30001;982;1875;-65
2021/09/14 00:02:03;;;;;;;;;;;;;;;17.30;74.23;96848.62;30001;982;1879;-65
2021/09/14 00:02:34;;;;;;;;;;;;;;;17.31;74.16;96847.50;30001;982;1858;-65
2021/09/14 00:03:05;;;;;;;;;;;;;;;17.31;74.37;96850.25;30001;982;1875;-64
2021/09/14 00:03:36;;;;;;;;;;;;;;;17.30;74.47;96848.62;30001;982;1858;-66
2021/09/14 00:04:08;;;;;;;;;;;;;;;17.29;74.45;96852.50;30001;982;1876;-66
2021/09/14 00:04:39;;;;;;;;;;;;;;;17.28;74.40;96842.69;30001;982;1876;-65
2021/09/14 00:05:10;;;;;;;;;;;;;;;17.27;74.50;96849.31;30001;983;1879;-66
2021/09/14 00:05:41;;;;;;;;;;;;;;;17.28;74.28;96841.88;30001;983;1875;-66
2021/09/14 00:06:12;;;;;;;;;;;;;;;17.25;74.60;96848.84;30001;983;1879;-65
2021/09/14 00:06:43;;;;;;;;;;;;;;;17.24;74.30;96855.47;30001;983;1875;-65
2021/09/14 00:07:13;;;;;;;;;;;;;;;17.24;74.68;96851.91;30001;983;1880;-65
2021/09/14 00:07:46;;;;;;;;;;;;;;;17.24;74.47;96851.91;30001;983;1875;-64
2021/09/14 00:08:17;;;;;;;;;;;;;;;17.25;74.51;96848.84;30001;983;1862;-68
2021/09/14 00:08:49;;;;;;;;;;;;;;;17.24;74.74;96852.72;30001;983;1871;-65
2021/09/14 00:09:20;;;;;;;;;;;;;;;17.25;74.45;96851.59;30001;982;1880;-66
2021/09/14 00:09:51;;;;;;;;;;;;;;;17.24;74.39;96852.72;30001;982;1780;-66
2021/09/14 00:10:22;;;;;;;;;;;;;;;17.23;74.42;96851.13;30001;982;1862;-66
2021/09/14 00:10:53;;;;;;;;;;;;;;;17.23;74.51;96851.13;30002;982;1871;-65
2021/09/14 00:11:24;;;;;;;;;;;;;;;17.23;74.77;96848.38;30002;982;1880;-69
2021/09/14 00:11:56;;;;;;;;;;;;;;;17.22;74.62;96849.50;30002;982;1876;-67
2021/09/14 00:12:27;;;;;;;;;;;;;;;17.19;74.83;96844.69;30002;983;1879;-68
2021/09/14 00:12:59;;;;;;;;;;;;;;;17.21;74.59;96842.41;30002;983;1875;-64
2021/09/14 00:13:32;;;;;;;;;;;;;;;17.19;74.92;96844.69;30002;983;1879;-68
2021/09/14 00:14:03;;;;;;;;;;;;;;;17.22;74.89;96848.72;30002;983;1857;-70
2021/09/14 00:14:34;;;;;;;;;;;;;;;17.21;74.83;96845.16;30002;983;1875;-65
2021/09/14 00:15:06;;;;;;;;;;;;;;;17.21;74.74;96842.41;30002;983;1875;-69
2021/09/14 00:15:37;;;;;;;;;;;;;;;17.22;74.54;96838.53;30002;983;1880;-65
2021/09/14 00:16:08;;;;;;;;;;;;;;;17.24;74.51;96840.94;30002;983;1875;-68
2021/09/14 00:16:39;;;;;;;;;;;;;;;17.25;74.75;96843.34;30002;982;1862;-66
2021/09/14 00:17:10;;;;;;;;;;;;;;;17.26;74.51;96844.16;30002;982;1871;-65
2021/09/14 00:17:41;;;;;;;;;;;;;;;17.25;74.66;96846.09;30002;982;1880;-65
2021/09/14 00:18:12;;;;;;;;;;;;;;;17.24;74.35;96847.25;30002;982;1876;-67
2021/09/14 00:18:42;;;;;;;;;;;;;;;17.24;74.75;96841.75;30002;982;1880;-64
2021/09/14 00:19:15;;;;;;;;;;;;;;;17.24;74.48;96843.69;30002;983;1875;-65
2021/09/14 00:19:46;;;;;;;;;;;;;;;17.24;74.70;96840.94;30002;983;1879;-65
2021/09/14 00:20:16;;;;;;;;;;;;;;;17.24;74.52;96840.94;30002;983;1875;-65
2021/09/14 00:20:47;;;;;;;;;;;;;;;17.24;74.53;96841.75;30002;983;1862;-66
2021/09/14 00:21:18;;;;;;;;;;;;;;;17.26;74.48;96838.69;30002;983;1871;-67
2021/09/14 00:21:49;;;;;;;;;;;;;;;17.27;74.60;96841.09;30002;983;1879;-64
2021/09/14 00:22:20;;;;;;;;;;;;;;;17.26;74.30;96842.22;30002;983;1875;-66
2021/09/14 00:22:51;;;;;;;;;;;;;;;17.25;74.59;96843.34;30002;983;1880;-66
2021/09/14 00:23:22;;;;;;;;;;;;;;;17.24;74.46;96843.69;30002;983;1875;-65
2021/09/14 00:23:53;;;;;;;;;;;;;;;17.23;74.63;96839.34;30002;983;1880;-63
2021/09/14 00:24:23;;;;;;;;;;;;;;;17.22;74.48;96844.03;30002;982;1875;-65
2021/09/14 00:24:54;;;;;;;;;;;;;;;17.21;74.71;96847.91;30002;982;1791;-64
2021/09/14 00:25:25;;;;;;;;;;;;;;;17.19;74.53;96839.22;30002;982;1858;-65
2021/09/14 00:25:56;;;;;;;;;;;;;;;17.19;74.85;96844.69;30002;982;1876;-64
2021/09/14 00:26:27;;;;;;;;;;;;;;;17.17;74.60;96846.97;30002;982;1876;-63
2021/09/14 00:26:58;;;;;;;;;;;;;;;17.15;74.93;96849.25;30002;983;1879;-66
2021/09/14 00:27:29;;;;;;;;;;;;;;;17.15;74.72;96848.44;30002;983;1875;-63
2021/09/14 00:27:59;;;;;;;;;;;;;;;17.14;74.71;96853.13;30002;983;1879;-69
2021/09/14 00:28:30;;;;;;;;;;;;;;;17.15;74.88;96848.44;30002;983;1875;-66
2021/09/14 00:29:01;;;;;;;;;;;;;;;17.14;74.91;96839.41;30002;983;1879;-64
2021/09/14 00:29:32;;;;;;;;;;;;;;;17.14;74.69;96847.63;30002;983;1875;-66
2021/09/14 00:30:04;;;;;;;;;;;;;;;17.14;74.97;96842.16;30002;983;1880;-65
2021/09/14 00:30:35;;;;;;;;;;;;;;;17.12;74.87;96849.91;30002;983;1814;-65
2021/09/14 00:31:06;;;;;;;;;;;;;;;17.11;74.84;96842.81;30002;983;1875;-64
2021/09/14 00:31:36;;;;;;;;;;;;;;;17.11;74.82;96845.56;30002;982;1875;-72
2021/09/14 00:32:07;;;;;;;;;;;;;;;17.12;75.04;96844.44;30002;982;1880;-64
2021/09/14 00:32:40;;;;;;;;;;;;;;;17.12;74.84;96838.16;30002;982;1876;-69
2021/09/14 00:33:11;;;;;;;;;;;;;;;17.12;74.84;96847.16;30002;982;1880;-65
2021/09/14 00:33:42;;;;;;;;;;;;;;;17.11;75.13;96845.56;30002;982;1876;-69
2021/09/14 00:34:13;;;;;;;;;;;;;;;17.13;75.07;96847.97;30002;983;1862;-71
2021/09/14 00:34:43;;;;;;;;;;;;;;;17.12;74.98;96849.91;30002;983;1870;-66
2021/09/14 00:35:14;;;;;;;;;;;;;;;17.12;75.08;96849.12;30002;983;1879;-64
2021/09/14 00:35:45;;;;;;;;;;;;;;;17.11;74.97;96847.50;30002;983;1875;-65
2021/09/14 00:36:16;;;;;;;;;;;;;;;17.10;75.20;96852.19;30002;983;1862;-65
2021/09/14 00:36:49;;;;;;;;;;;;;;;17.07;74.94;96845.44;30002;983;1871;-66
2021/09/14 00:37:20;;;;;;;;;;;;;;;17.07;75.01;96852.84;30002;983;1879;-64
2021/09/14 00:37:50;;;;;;;;;;;;;;;17.07;74.98;96847.38;30002;983;1875;-80
2021/09/14 00:38:21;;;;;;;;;;;;;;;17.06;75.41;96841.09;30002;983;1880;-68
2021/09/14 00:38:52;;;;;;;;;;;;;;;17.07;75.08;96848.19;30002;983;1875;-65
2021/09/14 00:39:23;;;;;;;;;;;;;;;17.08;75.03;96843.50;30002;982;1880;-64
2021/09/14 00:39:54;;;;;;;;;;;;;;;17.08;75.16;96846.25;30002;982;1876;-65
2021/09/14 00:40:27;;;;;;;;;;;;;;;17.09;75.41;96845.09;30002;982;1880;-65
2021/09/14 00:40:57;;;;;;;;;;;;;;;17.10;75.01;96841.22;30002;982;1876;-64
2021/09/14 00:41:30;;;;;;;;;;;;;;;17.11;75.34;96847.50;30002;982;1863;-65
2021/09/14 00:42:01;;;;;;;;;;;;;;;17.09;75.19;96851.38;30002;983;1870;-65
2021/09/14 00:42:32;;;;;;;;;;;;;;;17.09;75.23;96840.41;30002;983;1879;-64
2021/09/14 00:43:05;;;;;;;;;;;;;;;17.08;75.21;96848.97;30002;983;1875;-64
2021/09/14 00:43:37;;;;;;;;;;;;;;;17.08;75.36;96838.00;30002;983;1879;-66
2021/09/14 00:44:08;;;;;;;;;;;;;;;17.06;75.05;96840.28;30002;983;1875;-65
2021/09/14 00:44:39;;;;;;;;;;;;;;;17.05;75.15;96833.19;30002;983;1879;-64
2021/09/14 00:45:11;;;;;;;;;;;;;;;17.04;75.18;96837.87;30002;983;1875;-67
2021/09/14 00:45:41;;;;;;;;;;;;;;;17.03;75.42;96833.53;30002;983;1880;-64
2021/09/14 00:46:12;;;;;;;;;;;;;;;17.03;75.17;96841.75;30002;983;1875;-65
2021/09/14 00:46:43;;;;;;;;;;;;;;;17.02;75.51;96839.34;30002;982;1862;-64
2021/09/14 00:47:14;;;;;;;;;;;;;;;17.02;75.41;96839.34;30002;982;1871;-64
2021/09/14 00:47:45;;;;;;;;;;;;;;;17.01;75.44;96841.28;30002;982;1880;-65
2021/09/14 00:48:16;;;;;;;;;;;;;;;17.01;75.26;96843.22;30002;982;1876;-65
2021/09/14 00:48:48;;;;;;;;;;;;;;;17.01;75.33;96838.56;30002;982;1880;-65
2021/09/14 00:49:19;;;;;;;;;;;;;;;17.01;75.50;96841.28;30002;983;1857;-65
2021/09/14 00:49:50;;;;;;;;;;;;;;;17.01;75.47;96838.56;30002;983;1875;-64
2021/09/14 00:50:21;;;;;;;;;;;;;;;17.02;75.35;96839.34;30002;983;1875;-65
2021/09/14 00:50:52;;;;;;;;;;;;;;;17.02;75.29;96836.59;30002;983;1879;-67
2021/09/14 00:51:24;;;;;;;;;;;;;;;17.01;75.24;96833.06;30002;983;1875;-64
2021/09/14 00:51:55;;;;;;;;;;;;;;;17.00;75.45;96838.87;30002;983;1879;-65
2021/09/14 00:52:26;;;;;;;;;;;;;;;16.99;75.20;96835.34;30002;983;1875;-66
2021/09/14 00:52:57;;;;;;;;;;;;;;;16.99;75.52;96840.03;30002;983;1880;-66
2021/09/14 00:53:28;;;;;;;;;;;;;;;16.99;75.35;96834.53;30002;982;1875;-66
2021/09/14 00:53:59;;;;;;;;;;;;;;;16.98;75.38;96838.44;30002;982;1862;-67
2021/09/14 00:54:30;;;;;;;;;;;;;;;16.98;75.71;96838.44;30002;982;1871;-66
2021/09/14 00:55:02;;;;;;;;;;;;;;;16.97;75.32;96834.09;30002;982;1880;-67
2021/09/14 00:55:33;;;;;;;;;;;;;;;16.99;75.35;96823.56;30002;982;1876;-66
2021/09/14 00:56:05;;;;;;;;;;;;;;;17.00;75.53;96833.41;30002;982;1880;-65
2021/09/14 00:56:37;;;;;;;;;;;;;;;16.99;75.19;96827.12;30002;982;1876;-65
2021/09/14 00:57:08;;;;;;;;;;;;;;;17.00;75.34;96833.41;30002;983;1879;-65
2021/09/14 00:57:39;;;;;;;;;;;;;;;17.00;75.22;96831.47;30002;983;1875;-66
2021/09/14 00:58:11;;;;;;;;;;;;;;;17.01;75.60;96829.53;30002;983;1879;-66
2021/09/14 00:58:42;;;;;;;;;;;;;;;17.00;75.30;96836.13;30002;983;1875;-67
2021/09/14 00:59:13;;;;;;;;;;;;;;;16.99;75.62;96829.06;30002;983;1862;-65
2021/09/14 00:59:44;;;;;;;;;;;;;;;16.98;75.70;96827.47;30002;983;1871;-65
2021/09/14 01:00:15;;;;;;;;;;;;;;;16.96;75.64;96829.75;30002;983;1880;-64
2021/09/14 01:00:46;;;;;;;;;;;;;;;16.98;75.53;96832.97;30002;983;1875;-66
2021/09/14 01:01:16;;;;;;;;;;;;;;;16.97;75.88;96823.94;30002;982;1880;-69
2021/09/14 01:01:47;;;;;;;;;;;;;;;17.01;75.72;96832.25;30002;982;1876;-65
2021/09/14 01:02:19;;;;;;;;;;;;;;;17.01;75.66;96826.78;30002;982;1880;-64
2021/09/14 01:02:50;;;;;;;;;;;;;;;16.99;75.49;96824.38;30001;982;1876;-68
2021/09/14 01:03:21;;;;;;;;;;;;;;;17.00;75.62;96830.66;30001;982;1880;-74
2021/09/14 01:03:51;;;;;;;;;;;;;;;16.99;75.53;96826.31;30001;982;1876;-65
2021/09/14 01:04:24;;;;;;;;;;;;;;;16.97;75.55;96820.41;30002;983;1755;-66
2021/09/14 01:04:57;;;;;;;;;;;;;;;16.96;75.65;96825.06;30001;983;1871;-66
2021/09/14 01:05:27;;;;;;;;;;;;;;;16.96;75.75;96824.28;30001;983;1879;-67
2021/09/14 01:05:58;;;;;;;;;;;;;;;17.00;75.49;96825.19;30001;983;1875;-66
2021/09/14 01:06:29;;;;;;;;;;;;;;;17.00;75.78;96825.19;30001;983;1879;-64
2021/09/14 01:07:01;;;;;;;;;;;;;;;16.99;75.50;96823.56;30001;983;1875;-65
2021/09/14 01:07:32;;;;;;;;;;;;;;;16.97;75.58;96831.34;30001;983;1880;-66
2021/09/14 01:08:06;;;;;;;;;;;;;;;16.96;75.88;96824.28;30001;983;1858;-64
2021/09/14 01:08:37;;;;;;;;;;;;;;;16.93;75.56;96824.94;30001;982;1875;-65
2021/09/14 01:09:09;;;;;;;;;;;;;;;16.97;75.67;96826.69;30001;982;1875;-65
2021/09/14 01:09:40;;;;;;;;;;;;;;;16.96;75.67;96824.28;30001;982;1880;-66
2021/09/14 01:10:11;;;;;;;;;;;;;;;16.95;75.47;96825.41;30002;982;1778;-65
2021/09/14 01:10:45;;;;;;;;;;;;;;;16.95;75.59;96817.19;30001;982;1880;-63
2021/09/14 01:11:16;;;;;;;;;;;;;;;16.93;75.95;96816.72;30001;982;1858;-66
2021/09/14 01:11:47;;;;;;;;;;;;;;;16.92;75.99;96817.84;30001;983;1875;-66
2021/09/14 01:12:18;;;;;;;;;;;;;;;16.94;75.73;96819.12;30001;983;1875;-65
2021/09/14 01:12:49;;;;;;;;;;;;;;;16.95;75.64;96822.66;30001;983;1879;-67
2021/09/14 01:13:20;;;;;;;;;;;;;;;16.97;75.58;96818.47;30001;983;1875;-65
2021/09/14 01:14:04;;;;;;;;;;;;;;;16.97;75.38;96820.41;30001;983;1879;-65
2021/09/14 01:14:35;;;;;;;;;;;;;;;16.94;75.80;96815.59;30001;983;1858;-65
2021/09/14 01:15:06;;;;;;;;;;;;;;;16.95;75.94;96814.44;30001;983;1858;-65
2021/09/14 01:15:37;;;;;;;;;;;;;;;16.94;75.67;96818.31;30001;983;1875;-67
2021/09/14 01:16:12;;;;;;;;;;;;;;;16.94;75.82;96818.31;30001;982;1880;-65
2021/09/14 01:16:43;;;;;;;;;;;;;;;16.94;75.66;96815.59;30001;982;1875;-67
2021/09/14 01:17:14;;;;;;;;;;;;;;;16.93;75.59;96813.97;30001;982;1880;-64
2021/09/14 01:17:45;;;;;;;;;;;;;;;16.94;75.54;96812.84;30001;982;1876;-68
2021/09/14 01:18:15;;;;;;;;;;;;;;;16.95;75.80;96812.50;30001;982;1880;-65
2021/09/14 01:18:46;;;;;;;;;;;;;;;16.96;75.46;96814.09;30001;982;1876;-63
2021/09/14 01:19:17;;;;;;;;;;;;;;;16.98;75.32;96816.50;30001;982;1880;-66
2021/09/14 01:19:48;;;;;;;;;;;;;;;16.99;75.62;96807.13;30001;983;1857;-64
2021/09/14 01:20:19;;;;;;;;;;;;;;;16.97;75.49;96804.75;30001;983;1875;-66
2021/09/14 01:20:50;;;;;;;;;;;;;;;16.99;75.27;96809.88;30001;983;1875;-65
2021/09/14 01:21:21;;;;;;;;;;;;;;;16.96;75.49;96808.63;30002;958;1809;-64
2021/09/14 01:21:52;;;;;;;;;;;;;;;16.96;75.18;96807.81;30001;983;1875;-64
2021/09/14 01:22:26;;;;;;;;;;;;;;;16.95;75.73;96806.22;30001;983;1880;-67
2021/09/14 01:22:57;;;;;;;;;;;;;;;16.95;75.24;96817.19;30001;983;1875;-66
2021/09/14 01:23:28;;;;;;;;;;;;;;;16.97;75.58;96809.44;30001;983;1862;-64
2021/09/14 01:24:00;;;;;;;;;;;;;;;16.97;75.31;96809.44;30001;982;1871;-66
2021/09/14 01:24:31;;;;;;;;;;;;;;;16.96;75.32;96802.34;30001;982;1880;-66
2021/09/14 01:25:12;;;;;;;;;;;;;;;16.95;75.12;96806.22;30001;982;1876;-67
2021/09/14 01:25:44;;;;;;;;;;;;;;;16.95;75.08;96806.22;30001;982;1880;-65
2021/09/14 01:26:14;;;;;;;;;;;;;;;16.94;75.60;96805.41;30001;983;1875;-65
2021/09/14 01:26:45;;;;;;;;;;;;;;;16.93;75.22;96808.50;30001;983;1879;-65
2021/09/14 01:27:16;;;;;;;;;;;;;;;16.91;75.52;96810.78;30001;983;1874;-65
2021/09/14 01:27:48;;;;;;;;;;;;;;;16.89;75.22;96807.56;30001;983;1879;-64
2021/09/14 01:28:18;;;;;;;;;;;;;;;16.90;75.27;96814.66;30001;983;1857;-64
2021/09/14 01:28:50;;;;;;;;;;;;;;;16.88;75.31;96808.69;30001;983;1875;-63
2021/09/14 01:30:16;;;;;;;;;;;;;;;16.91;75.41;96802.53;30001;983;1862;-68
2021/09/14 01:30:48;;;;;;;;;;;;;;;16.91;75.39;96808.03;30001;983;1871;-64
2021/09/14 01:31:19;;;;;;;;;;;;;;;16.91;75.25;96810.78;30001;982;1880;-65
2021/09/14 01:31:50;;;;;;;;;;;;;;;16.91;75.12;96810.78;30001;982;1875;-66
2021/09/14 01:32:21;;;;;;;;;;;;;;;16.90;75.30;96807.22;30001;982;1880;-64
2021/09/14 01:32:56;;;;;;;;;;;;;;;16.93;75.30;96803.00;30001;982;1876;-66
2021/09/14 01:33:27;;;;;;;;;;;;;;;16.92;74.89;96801.41;30001;982;1845;-65
2021/09/14 01:33:58;;;;;;;;;;;;;;;16.91;74.92;96810.78;30001;983;1870;-65
2021/09/14 01:34:29;;;;;;;;;;;;;;;16.89;75.15;96808.37;30001;983;1879;-66
2021/09/14 01:35:22;;;;;;;;;;;;;;;16.90;75.10;96804.47;30001;983;1875;-64
2021/09/14 01:35:53;;;;;;;;;;;;;;;16.94;75.20;96812.84;30001;983;1857;-66
2021/09/14 01:36:24;;;;;;;;;;;;;;;16.93;74.86;96803.81;30001;983;1871;-64
2021/09/14 01:36:55;;;;;;;;;;;;;;;16.94;74.81;96810.09;30001;983;1879;-68
2021/09/14 01:37:26;;;;;;;;;;;;;;;16.93;74.95;96808.50;30001;983;1875;-67
2021/09/14 01:37:57;;;;;;;;;;;;;;;16.95;74.93;96817.19;30001;983;1879;-65
2021/09/14 01:38:28;;;;;;;;;;;;;;;16.94;74.89;96810.09;30001;983;1857;-68
2021/09/14 01:38:58;;;;;;;;;;;;;;;16.92;74.93;96801.41;30001;982;1875;-65
2021/09/14 01:39:29;;;;;;;;;;;;;;;16.91;74.97;96803.34;30001;982;1875;-66
2021/09/14 01:40:00;;;;;;;;;;;;;;;16.90;74.99;96804.47;30001;982;1880;-65
2021/09/14 01:40:31;;;;;;;;;;;;;;;16.90;75.17;96806.44;30001;982;1858;-66
2021/09/14 01:41:02;;;;;;;;;;;;;;;16.88;75.10;96805.97;30001;982;1875;-65
2021/09/14 01:41:34;;;;;;;;;;;;;;;16.89;75.11;96796.59;30001;983;1875;-67
2021/09/14 01:42:06;;;;;;;;;;;;;;;16.89;75.09;96802.06;30001;983;1879;-65
2021/09/14 01:42:37;;;;;;;;;;;;;;;16.88;75.02;96804.03;30001;983;1875;-67
2021/09/14 01:43:08;;;;;;;;;;;;;;;16.89;75.04;96797.41;30001;983;1866;-65
2021/09/14 01:43:40;;;;;;;;;;;;;;;16.89;75.09;96804.81;30001;983;1875;-66
2021/09/14 01:44:11;;;;;;;;;;;;;;;16.89;75.00;96807.56;30001;983;1866;-64
2021/09/14 01:44:42;;;;;;;;;;;;;;;16.87;75.06;96804.34;30001;983;1875;-65
2021/09/14 01:45:13;;;;;;;;;;;;;;;16.86;75.05;96800.00;30001;983;1884;-65
2021/09/14 01:45:44;;;;;;;;;;;;;;;16.86;75.10;96792.59;30001;983;1862;-66
2021/09/14 01:46:16;;;;;;;;;;;;;;;16.86;75.34;96800.81;30001;982;1862;-65
2021/09/14 01:46:48;;;;;;;;;;;;;;;16.86;75.05;96800.00;30001;982;1880;-66
2021/09/14 01:47:19;;;;;;;;;;;;;;;16.86;75.28;96797.25;30001;982;1884;-63
2021/09/14 01:47:50;;;;;;;;;;;;;;;16.89;75.04;96802.06;30001;982;1880;-67
2021/09/14 01:48:21;;;;;;;;;;;;;;;16.88;75.28;96800.47;30001;982;1884;-64
2021/09/14 01:48:52;;;;;;;;;;;;;;;16.87;75.03;96801.59;30001;983;1879;-67
2021/09/14 01:49:23;;;;;;;;;;;;;;;16.85;75.23;96801.94;30001;983;1883;-65
2021/09/14 01:49:53;;;;;;;;;;;;;;;16.85;75.04;96801.94;30001;983;1879;-65
2021/09/14 01:50:24;;;;;;;;;;;;;;;16.84;75.31;96802.28;30001;974;1901;-64
2021/09/14 01:50:55;;;;;;;;;;;;;;;16.83;75.38;96806.16;30001;983;1862;-65
2021/09/14 01:51:26;;;;;;;;;;;;;;;16.81;75.29;96811.16;30001;983;1879;-64
2021/09/14 01:51:59;;;;;;;;;;;;;;;16.79;75.51;96808.75;30001;983;1862;-64
2021/09/14 01:52:32;;;;;;;;;;;;;;;16.79;75.33;96807.97;30001;983;1879;-64
2021/09/14 01:53:04;;;;;;;;;;;;;;;16.77;75.45;96804.75;30001;983;1879;-65
2021/09/14 01:53:35;;;;;;;;;;;;;;;16.78;75.65;96806.34;30001;983;1884;-64
2021/09/14 01:54:06;;;;;;;;;;;;;;;16.79;75.36;96813.44;30001;982;1862;-63
2021/09/14 01:54:36;;;;;;;;;;;;;;;16.80;75.33;96806.81;30001;982;1880;-67
2021/09/14 01:55:09;;;;;;;;;;;;;;;16.81;75.30;96800.22;30001;982;1880;-64
2021/09/14 01:55:40;;;;;;;;;;;;;;;16.81;75.59;96806.50;30001;982;1884;-65
2021/09/14 01:56:10;;;;;;;;;;;;;;;16.81;75.20;96802.94;30001;982;1880;-64
2021/09/14 01:56:41;;;;;;;;;;;;;;;16.81;75.14;96802.94;30001;983;1883;-65
2021/09/14 01:57:12;;;;;;;;;;;;;;;16.81;75.33;96811.16;30001;983;1861;-64
2021/09/14 01:57:44;;;;;;;;;;;;;;;16.81;75.17;96805.69;30001;983;1879;-66
2021/09/14 01:58:15;;;;;;;;;;;;;;;16.79;75.48;96807.97;30001;983;1879;-66
2021/09/14 01:58:46;;;;;;;;;;;;;;;16.79;75.24;96807.97;30001;983;1884;-69
2021/09/14 01:59:17;;;;;;;;;;;;;;;16.79;75.32;96805.22;30001;983;1879;-65
2021/09/14 01:59:51;;;;;;;;;;;;;;;16.78;75.55;96806.34;30001;983;1884;-63
2021/09/14 02:00:25;;;;;;;;;;;;;;;16.78;75.34;96814.56;30001;983;1862;-64
2021/09/14 02:01:17;;;;;;;;;;;;;;;16.77;75.41;96807.50;30001;982;1879;-64
2021/09/14 02:02:01;;;;;;;;;;;;;;;16.74;75.33;96815.25;30001;982;1880;-64
2021/09/14 02:02:49;;;;;;;;;;;;;;;16.72;75.46;96809.28;30001;982;1867;-64
2021/09/14 02:03:37;;;;;;;;;;;;;;;16.72;75.77;96813.97;30001;982;1875;-65
2021/09/14 02:04:17;;;;;;;;;;;;;;;16.69;75.77;96815.44;30001;983;1883;-64
2021/09/14 02:04:54;;;;;;;;;;;;;;;16.70;75.92;96819.78;30001;983;1879;-65
2021/09/14 02:05:46;;;;;;;;;;;;;;;16.69;75.97;96809.97;30001;983;1883;-64
2021/09/14 02:06:44;;;;;;;;;;;;;;;16.69;75.67;96815.44;30001;983;1880;-65
2021/09/14 02:08:42;;;;;;;;;;;;;;;16.72;75.93;96814.78;30001;982;1875;-65
2021/09/14 02:38:34;;;;;;;;;;;;;;;16.41;77.42;96806.09;30001;982;1880;-63
2021/09/14 02:39:17;;;;;;;;;;;;;;;16.41;77.76;96808.84;30001;982;1884;-66
2021/09/14 02:41:48;;;;;;;;;;;;;;;16.38;77.90;96815.78;30001;983;1879;-63
2021/09/14 02:42:56;;;;;;;;;;;;;;;16.39;77.84;96805.63;30001;983;1792;-65
2021/09/14 02:59:03;;;;;;;;;;;;;;;16.41;77.81;96803.38;30001;983;1884;-65
2021/09/14 02:59:35;;;;;;;;;;;;;;;16.43;77.78;96801.09;30001;983;1880;-64
2021/09/14 03:00:06;;;;;;;;;;;;;;;16.43;77.63;96798.38;30001;983;1867;-64
2021/09/14 03:00:37;;;;;;;;;;;;;;;16.43;77.48;96806.56;30001;983;1875;-66
2021/09/14 03:01:09;;;;;;;;;;;;;;;16.44;77.52;96808.19;30001;982;1884;-65
2021/09/14 03:01:39;;;;;;;;;;;;;;;16.48;77.44;96803.66;30001;982;1880;-64
2021/09/14 03:02:10;;;;;;;;;;;;;;;16.48;77.60;96806.38;30001;982;1884;-66
2021/09/14 03:02:44;;;;;;;;;;;;;;;16.48;77.18;96803.66;30001;982;1880;-65
2021/09/14 03:03:15;;;;;;;;;;;;;;;16.47;77.61;96801.25;30001;982;1884;-64
2021/09/14 03:03:48;;;;;;;;;;;;;;;16.43;77.42;96801.91;30001;983;1879;-64
2021/09/14 03:04:19;;;;;;;;;;;;;;;16.43;77.39;96801.09;30001;986;1875;-63
2021/09/14 03:04:50;;;;;;;;;;;;;;;16.43;77.55;96798.38;30001;983;1884;-64
2021/09/14 03:05:21;;;;;;;;;;;;;;;16.42;77.65;96800.28;30001;983;1861;-65
2021/09/14 03:05:52;;;;;;;;;;;;;;;16.42;77.71;96804.97;30001;983;1862;-63
2021/09/14 03:06:24;;;;;;;;;;;;;;;16.42;77.62;96811.25;30001;983;1879;-64
2021/09/14 03:06:55;;;;;;;;;;;;;;;16.41;77.36;96800.63;30001;983;1884;-62
2021/09/14 03:07:26;;;;;;;;;;;;;;;16.41;77.76;96803.38;30001;983;1880;-64
2021/09/14 03:07:56;;;;;;;;;;;;;;;16.41;77.77;96798.69;30001;982;1867;-64
2021/09/14 03:08:27;;;;;;;;;;;;;;;16.41;77.72;96803.38;30001;982;1875;-63
2021/09/14 03:08:58;;;;;;;;;;;;;;;16.41;77.48;96798.69;30001;982;1884;-63
2021/09/14 03:09:29;;;;;;;;;;;;;;;16.42;77.75;96794.81;30001;971;1900;-64
2021/09/14 03:10:00;;;;;;;;;;;;;;;16.43;77.74;96801.09;30001;982;1867;-65
2021/09/14 03:10:30;;;;;;;;;;;;;;;16.43;77.83;96796.44;30001;982;1876;-66
2021/09/14 03:11:06;;;;;;;;;;;;;;;16.45;77.74;96798.84;30001;983;1866;-64
2021/09/14 03:11:37;;;;;;;;;;;;;;;16.43;77.83;96795.62;30001;983;1875;-65
2021/09/14 03:12:09;;;;;;;;;;;;;;;16.45;77.60;96796.09;30001;983;1884;-64
2021/09/14 03:12:40;;;;;;;;;;;;;;;16.45;77.84;96793.34;30001;983;1879;-64
2021/09/14 03:13:12;;;;;;;;;;;;;;;16.43;77.86;96792.87;30001;983;1884;-64
2021/09/14 03:13:42;;;;;;;;;;;;;;;16.43;77.61;96795.62;30001;983;1880;-63
2021/09/14 03:14:13;;;;;;;;;;;;;;;16.43;77.62;96795.62;30001;983;1884;-64
2021/09/14 03:14:44;;;;;;;;;;;;;;;16.42;77.80;96803.03;30001;983;1880;-65
2021/09/14 03:15:15;;;;;;;;;;;;;;;16.43;77.67;96801.09;30001;982;1884;-64
2021/09/14 03:15:46;;;;;;;;;;;;;;;16.42;77.94;96799.50;30001;982;1880;-63
2021/09/14 03:16:18;;;;;;;;;;;;;;;16.42;77.86;96796.75;30001;982;1867;-64
2021/09/14 03:16:49;;;;;;;;;;;;;;;16.41;77.95;96798.69;30001;982;1876;-64
2021/09/14 03:17:20;;;;;;;;;;;;;;;16.42;77.78;96794.03;30001;982;1884;-64
2021/09/14 03:17:51;;;;;;;;;;;;;;;16.43;78.01;96798.38;30001;982;1880;-64
2021/09/14 03:18:21;;;;;;;;;;;;;;;16.42;77.72;96794.03;30001;982;1884;-64
2021/09/14 03:18:52;;;;;;;;;;;;;;;16.42;77.81;96796.75;30001;983;1879;-62
2021/09/14 03:19:23;;;;;;;;;;;;;;;16.41;77.96;96792.41;30001;983;1884;-63
2021/09/14 03:19:54;;;;;;;;;;;;;;;16.41;77.64;96792.41;30001;983;1862;-65
2021/09/14 03:20:25;;;;;;;;;;;;;;;16.40;77.67;96790.81;30001;983;1879;-64
2021/09/14 03:20:56;;;;;;;;;;;;;;;16.40;77.95;96791.63;30001;983;1879;-63
2021/09/14 03:21:27;;;;;;;;;;;;;;;16.42;78.11;96794.03;30001;983;1884;-63
2021/09/14 03:21:58;;;;;;;;;;;;;;;16.42;78.00;96794.03;30001;983;1880;-67
2021/09/14 03:22:29;;;;;;;;;;;;;;;16.41;77.89;96795.16;30001;983;1884;-73
2021/09/14 03:22:59;;;;;;;;;;;;;;;16.42;77.87;96794.03;30001;982;1880;-63
2021/09/14 03:23:31;;;;;;;;;;;;;;;16.41;77.83;96797.88;30001;982;1867;-65
2021/09/14 03:24:02;;;;;;;;;;;;;;;16.40;77.94;96794.34;30001;982;1876;-64
2021/09/14 03:24:33;;;;;;;;;;;;;;;16.40;77.90;96801.75;30001;982;1867;-64
2021/09/14 03:25:04;;;;;;;;;;;;;;;16.39;78.07;96800.16;30001;982;1876;-64
2021/09/14 03:25:35;;;;;;;;;;;;;;;16.38;77.90;96788.41;30001;982;1884;-64
2021/09/14 03:26:06;;;;;;;;;;;;;;;16.38;77.94;96790.34;30001;965;1820;-63
2021/09/14 03:26:37;;;;;;;;;;;;;;;16.37;77.94;96795.00;30001;983;1884;-64
2021/09/14 03:27:08;;;;;;;;;;;;;;;16.37;78.21;96792.28;30001;983;1879;-62
2021/09/14 03:27:39;;;;;;;;;;;;;;;16.37;78.33;96791.47;30001;983;1884;-65
2021/09/14 03:28:11;;;;;;;;;;;;;;;16.36;78.16;96795.34;30001;983;1879;-64
2021/09/14 03:28:42;;;;;;;;;;;;;;;16.39;78.07;96783.72;30001;983;1884;-63
2021/09/14 03:29:13;;;;;;;;;;;;;;;16.39;78.14;96795.47;30001;983;1862;-63
2021/09/14 03:29:43;;;;;;;;;;;;;;;16.38;78.23;96790.34;30001;983;1880;-64
2021/09/14 03:30:14;;;;;;;;;;;;;;;16.39;78.52;96791.94;30001;982;1880;-64
2021/09/14 03:30:45;;;;;;;;;;;;;;;16.38;78.10;96799.34;30001;982;1884;-63
2021/09/14 03:31:17;;;;;;;;;;;;;;;16.39;78.35;96795.47;30001;982;1880;-62
2021/09/14 03:31:47;;;;;;;;;;;;;;;16.40;78.25;96796.28;30001;982;1884;-66
2021/09/14 03:32:19;;;;;;;;;;;;;;;16.42;78.34;96799.50;30001;982;1880;-64
2021/09/14 03:32:50;;;;;;;;;;;;;;;16.43;78.29;96795.62;30001;982;1867;-63
2021/09/14 03:33:21;;;;;;;;;;;;;;;16.47;78.14;96795.75;30001;982;1876;-63
2021/09/14 03:33:55;;;;;;;;;;;;;;;16.47;77.89;96802.03;30001;983;1884;-66
2021/09/14 03:34:26;;;;;;;;;;;;;;;16.46;78.15;96794.16;30001;983;1879;-63
2021/09/14 03:34:56;;;;;;;;;;;;;;;16.46;78.04;96800.44;30001;972;1904;-63
2021/09/14 03:35:28;;;;;;;;;;;;;;;16.46;78.08;96794.97;30001;983;1879;-63
2021/09/14 03:35:58;;;;;;;;;;;;;;;16.47;77.78;96796.56;30001;983;1866;-64
2021/09/14 03:36:29;;;;;;;;;;;;;;;16.45;78.09;96793.34;30001;983;1875;-63
2021/09/14 03:37:00;;;;;;;;;;;;;;;16.45;77.74;96789.81;30001;983;1884;-62
2021/09/14 03:37:31;;;;;;;;;;;;;;;16.47;78.11;96791.09;30001;983;1880;-63
2021/09/14 03:38:02;;;;;;;;;;;;;;;16.50;77.98;96801.38;30001;982;1867;-62
2021/09/14 03:38:33;;;;;;;;;;;;;;;16.52;77.71;96795.56;30001;982;1875;-63
2021/09/14 03:39:04;;;;;;;;;;;;;;;16.50;77.95;96797.84;30001;982;1884;-64
2021/09/14 03:39:35;;;;;;;;;;;;;;;16.48;77.90;96792.69;30001;982;1880;-64
2021/09/14 03:40:06;;;;;;;;;;;;;;;16.48;77.69;96791.87;30001;982;1884;-63